Time;durP1;ratioP1;P1;durP2;ratioP2;P2;SDS_P1;SDS_P2;PMS_P1;PMS_P2;Temp;Humidity;BMP_temperature;BMP_pressure;BME280_temperature;BME280_humidity;BME280_pressure;Samples;Min_cycle;Max_cycle;Signal;HPM_P1;HPM_P2
2024/02/07 00:01:58;;;;;;;1.90;1.50;;;7.60;99.90;;;;;;4979571;28;20297;-91
2024/02/07 00:04:25;;;;;;;0.40;0.40;;;7.50;99.90;;;;;;4980855;28;20217;-91
2024/02/07 00:06:50;;;;;;;0.63;0.63;;;7.60;99.90;;;;;;4996932;28;20183;-91
2024/02/07 00:09:18;;;;;;;3.50;0.73;;;7.50;99.90;;;;;;4980854;28;20188;-92
2024/02/07 00:11:43;;;;;;;1.23;1.23;;;7.50;99.90;;;;;;4996984;28;20309;-91
2024/02/07 00:14:09;;;;;;;4.93;1.20;;;7.50;99.90;;;;;;4980735;28;20286;-92
2024/02/07 00:16:35;;;;;;;2.27;1.17;;;7.50;99.90;;;;;;4980802;28;20719;-91
2024/02/07 00:19:01;;;;;;;0.20;0.20;;;7.50;99.90;;;;;;4979688;28;20699;-91
2024/02/07 00:21:26;;;;;;;2.00;2.00;;;7.50;99.90;;;;;;4979907;28;20237;-92
2024/02/07 00:23:52;;;;;;;0.20;0.20;;;7.50;99.90;;;;;;4980496;28;20277;-92
2024/02/07 00:26:18;;;;;;;0.40;0.40;;;7.50;99.90;;;;;;4979094;28;20216;-92
2024/02/07 00:28:46;;;;;;;1.13;0.70;;;7.50;99.90;;;;;;4980222;28;20219;-91
2024/02/07 00:31:12;;;;;;;0.53;0.53;;;7.50;99.90;;;;;;4996796;28;20592;-91
2024/02/07 00:33:38;;;;;;;0.60;0.60;;;7.30;99.90;;;;;;4996877;28;20192;-91
2024/02/07 00:36:05;;;;;;;0.60;0.60;;;7.40;99.90;;;;;;4996632;28;20644;-92
2024/02/07 00:38:31;;;;;;;2.57;1.07;;;7.40;99.90;;;;;;4991405;28;20242;-92
2024/02/07 00:40:57;;;;;;;0.20;0.20;;;7.30;99.90;;;;;;4979206;28;20212;-92
2024/02/07 00:43:23;;;;;;;0.83;0.50;;;7.40;99.90;;;;;;4984121;28;20262;-92
2024/02/07 00:45:48;;;;;;;0.50;0.50;;;7.20;99.90;;;;;;4980037;28;20218;-92
2024/02/07 00:48:14;;;;;;;2.57;1.07;;;7.20;99.90;;;;;;4980807;28;20229;-92
2024/02/07 00:50:40;;;;;;;0.30;0.30;;;7.30;99.90;;;;;;4980355;28;20215;-91
2024/02/07 00:53:09;;;;;;;0.20;0.20;;;7.10;99.90;;;;;;4980480;28;20211;-92
2024/02/07 00:55:34;;;;;;;0.30;0.30;;;7.10;99.90;;;;;;4989916;28;20223;-92
2024/02/07 00:58:01;;;;;;;0.20;0.20;;;7.00;99.90;;;;;;4996303;28;20307;-91
2024/02/07 01:00:27;;;;;;;0.30;0.30;;;7.00;99.90;;;;;;4980021;28;20199;-92
2024/02/07 01:02:53;;;;;;;1.13;0.63;;;7.10;99.90;;;;;;4976474;28;20218;-92
2024/02/07 01:05:19;;;;;;;7.83;0.53;;;7.00;99.90;;;;;;4979618;28;20304;-91
2024/02/07 01:07:45;;;;;;;6.23;0.97;;;7.00;99.90;;;;;;4979015;28;20696;-92
2024/02/07 01:10:11;;;;;;;1.93;1.77;;;7.00;99.90;;;;;;4987063;28;20572;-92
2024/02/07 01:12:36;;;;;;;0.73;0.73;;;6.90;99.90;;;;;;4980338;28;20223;-91
2024/02/07 01:15:02;;;;;;;0.20;0.20;;;6.90;99.90;;;;;;4996930;28;20183;-91
2024/02/07 01:17:28;;;;;;;0.20;0.20;;;7.00;99.90;;;;;;4979607;28;20234;-91
2024/02/07 01:19:54;;;;;;;0.20;0.20;;;6.90;99.90;;;;;;4979440;28;20227;-91
2024/02/07 01:22:20;;;;;;;0.20;0.20;;;7.00;99.90;;;;;;4979320;28;20266;-91
2024/02/07 01:24:46;;;;;;;0.20;0.20;;;6.90;99.90;;;;;;4979396;28;20528;-91
2024/02/07 01:27:12;;;;;;;0.97;0.97;;;7.00;99.90;;;;;;4979300;28;20198;-91
2024/02/07 01:29:38;;;;;;;0.77;0.77;;;6.90;99.90;;;;;;4979147;28;20207;-91
2024/02/07 01:32:04;;;;;;;0.20;0.20;;;7.00;99.90;;;;;;4978539;28;20214;-91
2024/02/07 01:34:30;;;;;;;0.30;0.30;;;7.00;99.90;;;;;;4977978;28;20215;-92
2024/02/07 01:36:56;;;;;;;0.20;0.20;;;7.00;99.90;;;;;;4979045;28;20267;-91
2024/02/07 01:39:23;;;;;;;0.43;0.43;;;7.00;99.90;;;;;;4979655;28;20218;-92
2024/02/07 01:41:57;;;;;;;0.20;0.20;;;7.00;99.90;;;;;;4994695;28;20218;-91
2024/02/07 01:44:29;;;;;;;1.03;0.63;;;6.90;99.90;;;;;;4996284;28;20207;-92
2024/02/07 01:47:13;;;;;;;1.50;0.70;;;7.00;99.90;;;;;;4998596;28;20215;-91
2024/02/07 01:49:52;;;;;;;0.20;0.20;;;6.90;99.90;;;;;;4994744;28;20215;-91
2024/02/07 01:52:21;;;;;;;0.20;0.20;;;7.00;99.90;;;;;;4994887;28;20223;-91
2024/02/07 01:54:48;;;;;;;0.20;0.20;;;7.00;99.90;;;;;;4995146;28;20194;-92
2024/02/07 01:57:14;;;;;;;0.20;0.20;;;6.90;99.90;;;;;;4979352;28;20235;-92
2024/02/07 01:59:41;;;;;;;0.20;0.20;;;6.90;99.90;;;;;;4995963;28;20227;-89
2024/02/07 02:02:07;;;;;;;2.83;1.23;;;7.10;99.90;;;;;;4978522;28;20223;-91
2024/02/07 02:04:35;;;;;;;0.20;0.20;;;7.10;99.90;;;;;;4992172;28;20222;-92
2024/02/07 02:07:01;;;;;;;0.20;0.20;;;7.20;99.90;;;;;;4979021;28;20210;-91
2024/02/07 02:09:28;;;;;;;0.80;0.80;;;7.20;99.90;;;;;;4979082;28;20203;-92
2024/02/07 02:11:56;;;;;;;0.20;0.20;;;7.00;99.90;;;;;;4975792;28;20229;-91
2024/02/07 02:14:23;;;;;;;0.20;0.20;;;7.00;99.90;;;;;;4994586;28;20211;-92
2024/02/07 02:16:49;;;;;;;0.30;0.30;;;7.10;99.90;;;;;;4978248;28;20579;-91
2024/02/07 02:19:19;;;;;;;0.87;0.53;;;7.00;99.90;;;;;;4991379;28;20234;-91
2024/02/07 02:22:02;;;;;;;0.83;0.47;;;7.00;99.90;;;;;;4971762;28;20203;-91
2024/02/07 02:25:06;;;;;;;0.20;0.20;;;6.90;99.90;;;;;;5005863;28;20188;-92
2024/02/07 02:27:37;;;;;;;0.20;0.20;;;6.90;99.90;;;;;;4942740;29;20332;-91
2024/02/07 02:30:12;;;;;;;0.27;0.27;;;6.90;99.90;;;;;;4940921;29;20200;-91
2024/02/07 02:32:41;;;;;;;0.20;0.20;;;6.90;99.90;;;;;;4938435;29;20224;-91
2024/02/07 02:35:08;;;;;;;0.20;0.20;;;6.90;99.90;;;;;;4944387;29;20217;-91
2024/02/07 02:37:34;;;;;;;0.40;0.30;;;6.90;99.90;;;;;;4972855;28;20211;-91
2024/02/07 02:40:05;;;;;;;0.57;0.30;;;6.80;99.90;;;;;;4978306;28;20680;-91
2024/02/07 02:42:34;;;;;;;0.30;0.30;;;6.90;99.90;;;;;;4995994;28;20190;-92
2024/02/07 02:45:00;;;;;;;0.20;0.20;;;6.80;99.90;;;;;;4978644;28;20191;-91
2024/02/07 02:47:28;;;;;;;0.40;0.40;;;6.80;99.90;;;;;;4975042;28;20711;-92
2024/02/07 02:49:54;;;;;;;0.20;0.20;;;6.80;99.90;;;;;;4986236;28;20695;-91
2024/02/07 02:52:23;;;;;;;0.20;0.20;;;6.70;99.90;;;;;;4977707;28;20301;-92
2024/02/07 02:54:49;;;;;;;0.20;0.20;;;6.70;99.90;;;;;;4979826;28;20189;-92
2024/02/07 02:57:17;;;;;;;0.20;0.20;;;6.70;99.90;;;;;;4991608;28;20715;-92
2024/02/07 02:59:43;;;;;;;0.20;0.20;;;6.70;99.90;;;;;;4961377;28;20223;-91
2024/02/07 03:02:09;;;;;;;0.27;0.27;;;6.70;99.90;;;;;;4993619;28;20656;-92
2024/02/07 03:04:41;;;;;;;0.30;0.30;;;6.70;99.90;;;;;;4969445;28;20239;-92
2024/02/07 03:09:56;;;;;;;0.23;0.23;;;6.60;99.90;;;;;;5002427;28;20215;-92
2024/02/07 03:12:22;;;;;;;0.20;0.20;;;6.60;99.90;;;;;;4978376;28;20554;-91
2024/02/07 03:14:48;;;;;;;0.50;0.50;;;6.60;99.90;;;;;;4978150;28;20215;-92
2024/02/07 03:17:14;;;;;;;0.57;0.57;;;6.60;99.90;;;;;;4984819;28;20224;-92
2024/02/07 03:19:40;;;;;;;0.77;0.40;;;6.70;99.90;;;;;;4993595;28;20345;-91
2024/02/07 03:22:06;;;;;;;0.10;0.10;;;6.60;99.90;;;;;;4987651;28;20390;-91
2024/02/07 03:24:32;;;;;;;0.30;0.30;;;6.70;99.90;;;;;;4994069;28;20589;-92
2024/02/07 03:26:58;;;;;;;0.30;0.30;;;6.60;99.90;;;;;;4967784;28;20201;-91
2024/02/07 03:29:25;;;;;;;0.20;0.20;;;6.60;99.90;;;;;;4976925;28;20273;-91
2024/02/07 03:31:53;;;;;;;0.10;0.10;;;6.60;99.90;;;;;;4977442;28;20226;-92
2024/02/07 03:34:20;;;;;;;0.30;0.30;;;6.70;99.90;;;;;;4986799;28;20302;-90
2024/02/07 03:36:46;;;;;;;0.20;0.20;;;6.70;99.90;;;;;;4975003;28;20190;-90
2024/02/07 03:39:15;;;;;;;0.40;0.40;;;6.60;99.90;;;;;;4977840;28;20552;-92
2024/02/07 03:41:41;;;;;;;0.20;0.20;;;6.70;99.90;;;;;;4976885;28;20211;-92
2024/02/07 03:44:12;;;;;;;0.20;0.20;;;6.70;99.90;;;;;;4976857;28;20329;-91
2024/02/07 03:46:42;;;;;;;0.30;0.30;;;6.60;99.90;;;;;;4991987;28;20302;-91
2024/02/07 03:49:09;;;;;;;0.33;0.23;;;6.60;99.90;;;;;;4976988;28;20226;-91
2024/02/07 03:51:36;;;;;;;0.93;0.93;;;6.50;99.90;;;;;;4980344;28;20206;-91
2024/02/07 03:54:10;;;;;;;1.67;0.57;;;6.60;99.90;;;;;;4980380;28;20635;-92
2024/02/07 03:56:39;;;;;;;2.10;0.47;;;6.60;99.90;;;;;;4980685;28;20590;-91
2024/02/07 03:59:06;;;;;;;0.30;0.30;;;6.50;99.90;;;;;;4988640;28;20265;-91
2024/02/07 04:01:32;;;;;;;0.30;0.30;;;6.50;99.90;;;;;;4978959;28;20261;-92
2024/02/07 04:03:58;;;;;;;0.53;0.53;;;6.60;99.90;;;;;;4979156;28;20297;-91
2024/02/07 04:06:24;;;;;;;0.60;0.60;;;6.40;99.90;;;;;;4983621;28;20608;-91
2024/02/07 04:08:50;;;;;;;0.20;0.20;;;6.50;99.90;;;;;;4979330;28;20541;-91
2024/02/07 05:16:29;;;;;;;0.20;0.20;;;6.10;99.90;;;;;;5010306;28;20218;-91
2024/02/07 05:18:55;;;;;;;0.20;0.20;;;6.00;99.90;;;;;;4993866;28;20231;-90
2024/02/07 05:21:21;;;;;;;0.67;0.67;;;6.00;99.90;;;;;;4994096;28;20292;-90
2024/02/07 05:23:48;;;;;;;0.33;0.33;;;6.10;99.90;;;;;;4979622;28;20234;-91
2024/02/07 05:26:17;;;;;;;0.77;0.77;;;6.00;99.90;;;;;;4977776;28;20609;-93
2024/02/07 05:28:42;;;;;;;0.20;0.20;;;6.00;99.90;;;;;;4977293;28;20269;-91
2024/02/07 05:31:08;;;;;;;0.20;0.20;;;6.00;99.90;;;;;;4953209;28;20219;-91
2024/02/07 05:33:34;;;;;;;0.20;0.20;;;6.00;99.90;;;;;;4993651;28;20195;-91
2024/02/07 05:36:00;;;;;;;14.87;1.17;;;6.00;99.90;;;;;;4978640;28;20214;-91
2024/02/07 05:38:25;;;;;;;3.60;1.23;;;6.10;99.90;;;;;;4992879;28;20272;-92
2024/02/07 05:40:51;;;;;;;0.50;0.50;;;6.10;99.90;;;;;;4976642;28;20219;-91
2024/02/07 05:43:20;;;;;;;5.57;2.73;;;6.20;99.90;;;;;;4992935;28;20230;-91
2024/02/07 05:45:46;;;;;;;4.50;0.67;;;6.20;99.90;;;;;;4977635;28;20198;-90
2024/02/07 05:48:12;;;;;;;0.67;0.67;;;6.10;99.90;;;;;;4977553;28;20183;-91
2024/02/07 05:50:38;;;;;;;1.80;0.40;;;6.10;99.90;;;;;;4976997;28;20211;-91
2024/02/07 05:53:04;;;;;;;0.50;0.50;;;6.00;99.90;;;;;;4976316;28;20227;-92
2024/02/07 05:55:30;;;;;;;0.20;0.20;;;6.00;99.90;;;;;;4980816;28;20260;-90
2024/02/07 05:57:56;;;;;;;0.20;0.20;;;5.90;99.90;;;;;;4977326;28;20226;-90
2024/02/07 06:00:22;;;;;;;0.20;0.20;;;5.80;99.90;;;;;;4978321;28;20223;-91
2024/02/07 06:02:47;;;;;;;0.20;0.20;;;5.80;99.90;;;;;;4975910;28;20239;-91
2024/02/07 06:05:13;;;;;;;0.50;0.50;;;5.80;99.90;;;;;;4987259;28;20258;-93
2024/02/07 06:07:39;;;;;;;0.20;0.20;;;5.90;99.90;;;;;;4976939;28;20215;-91
2024/02/07 06:10:05;;;;;;;1.10;0.87;;;5.90;99.90;;;;;;4977356;28;20223;-91
2024/02/07 06:12:31;;;;;;;0.20;0.20;;;5.80;99.90;;;;;;4977917;28;20196;-91
2024/02/07 06:14:58;;;;;;;0.60;0.50;;;5.80;99.90;;;;;;4977202;28;20226;-91
2024/02/07 06:17:26;;;;;;;0.20;0.20;;;5.80;99.90;;;;;;4976774;28;20238;-92
2024/02/07 06:19:52;;;;;;;0.30;0.30;;;5.70;99.90;;;;;;4976581;28;20773;-92
2024/02/07 06:22:18;;;;;;;0.20;0.20;;;5.70;99.90;;;;;;4976402;28;20215;-91
2024/02/07 06:24:44;;;;;;;0.67;0.67;;;5.70;99.90;;;;;;4969572;28;20663;-91
2024/02/07 06:27:10;;;;;;;0.30;0.30;;;5.60;99.90;;;;;;4977013;28;20187;-91
2024/02/07 06:29:35;;;;;;;0.20;0.20;;;5.50;99.90;;;;;;4992450;28;20275;-91
2024/02/07 06:32:01;;;;;;;0.20;0.20;;;5.50;99.90;;;;;;4976019;28;20222;-90
2024/02/07 06:34:31;;;;;;;0.30;0.30;;;5.60;99.90;;;;;;4975824;28;20295;-91
2024/02/07 06:36:59;;;;;;;0.20;0.20;;;5.50;99.90;;;;;;4977629;28;20241;-91
2024/02/07 06:39:25;;;;;;;0.30;0.30;;;5.60;99.90;;;;;;4993231;28;20207;-90
2024/02/07 06:41:51;;;;;;;1.03;0.93;;;5.70;99.90;;;;;;4992216;28;20690;-92
2024/02/07 06:44:17;;;;;;;0.20;0.20;;;5.70;99.90;;;;;;4977451;28;20203;-91
2024/02/07 06:46:43;;;;;;;0.30;0.30;;;5.80;99.90;;;;;;4976611;28;20659;-92
2024/02/07 06:49:09;;;;;;;0.20;0.20;;;5.80;99.90;;;;;;4977232;28;20596;-91
2024/02/07 06:51:34;;;;;;;0.30;0.30;;;5.80;99.90;;;;;;4978549;28;20278;-91
2024/02/07 06:54:01;;;;;;;0.30;0.30;;;5.70;99.90;;;;;;4979135;28;20475;-92
2024/02/07 06:56:27;;;;;;;1.07;0.60;;;5.70;99.90;;;;;;4977399;28;20223;-90
2024/02/07 06:58:53;;;;;;;0.20;0.20;;;5.60;99.90;;;;;;4976757;28;20323;-91
2024/02/07 07:01:19;;;;;;;0.30;0.30;;;5.70;99.90;;;;;;4979243;28;20684;-92
2024/02/07 07:03:50;;;;;;;0.20;0.20;;;5.60;99.90;;;;;;4978414;28;20187;-90
2024/02/07 07:06:16;;;;;;;0.20;0.20;;;5.60;99.90;;;;;;4994019;28;20238;-91
2024/02/07 07:08:41;;;;;;;0.30;0.30;;;5.60;99.90;;;;;;4977728;28;20219;-91
2024/02/07 07:11:07;;;;;;;0.30;0.30;;;5.60;99.90;;;;;;4977024;28;20269;-91
2024/02/07 07:13:33;;;;;;;0.30;0.30;;;5.50;99.90;;;;;;4986576;28;20227;-92
2024/02/07 07:15:59;;;;;;;0.30;0.30;;;5.50;99.90;;;;;;4976966;28;20211;-91
2024/02/07 07:18:25;;;;;;;0.20;0.20;;;5.60;99.90;;;;;;4976154;28;20268;-90
2024/02/07 07:20:50;;;;;;;0.30;0.30;;;5.50;99.90;;;;;;4977340;28;20270;-90
2024/02/07 07:23:17;;;;;;;0.20;0.20;;;5.50;99.90;;;;;;4974951;28;20220;-90
2024/02/07 07:25:43;;;;;;;0.93;0.93;;;5.50;99.90;;;;;;4979087;28;20211;-90
2024/02/07 07:28:09;;;;;;;0.20;0.20;;;5.50;99.90;;;;;;4988453;28;20281;-89
2024/02/07 07:30:35;;;;;;;0.20;0.20;;;5.50;99.90;;;;;;4975566;28;20184;-91
2024/02/07 07:33:02;;;;;;;0.30;0.30;;;5.40;99.90;;;;;;4998050;28;20176;-90
2024/02/07 07:35:28;;;;;;;0.20;0.20;;;5.50;99.90;;;;;;4982414;28;20216;-89
2024/02/07 07:37:56;;;;;;;0.23;0.23;;;5.40;99.90;;;;;;4977039;28;20219;-89
2024/02/07 07:40:23;;;;;;;0.20;0.20;;;5.40;99.90;;;;;;4979082;28;20712;-90
2024/02/07 07:42:49;;;;;;;20.57;1.07;;;5.40;99.90;;;;;;4996059;28;20562;-90
2024/02/07 07:45:15;;;;;;;1.27;1.27;;;5.50;99.90;;;;;;4992234;28;20171;-89
2024/02/07 07:47:41;;;;;;;0.40;0.40;;;5.40;99.90;;;;;;4979385;28;20214;-90
2024/02/07 07:50:07;;;;;;;6.60;0.50;;;5.40;99.90;;;;;;4987592;28;20241;-90
2024/02/07 07:52:33;;;;;;;0.63;0.53;;;5.50;99.90;;;;;;4978674;28;20243;-90
2024/02/07 07:55:00;;;;;;;0.30;0.30;;;5.30;99.90;;;;;;4980601;28;20331;-89
2024/02/07 07:57:28;;;;;;;0.20;0.20;;;5.50;99.90;;;;;;4991761;28;20235;-90
2024/02/07 07:59:55;;;;;;;0.40;0.40;;;5.60;99.90;;;;;;4978458;28;20250;-90
2024/02/07 08:02:21;;;;;;;0.30;0.30;;;5.50;99.90;;;;;;4981177;28;20627;-90
2024/02/07 08:04:49;;;;;;;6.03;0.53;;;5.60;99.90;;;;;;4998577;28;20215;-90
2024/02/07 08:07:15;;;;;;;0.57;0.57;;;5.60;99.90;;;;;;4997614;28;20719;-90
2024/02/07 08:09:42;;;;;;;0.37;0.37;;;5.70;99.90;;;;;;4981371;28;20179;-90
2024/02/07 08:12:08;;;;;;;0.30;0.30;;;5.70;99.90;;;;;;4992478;28;20246;-90
2024/02/07 08:14:35;;;;;;;1.33;0.40;;;5.70;99.90;;;;;;4980037;28;20207;-89
2024/02/07 08:17:01;;;;;;;8.57;2.00;;;5.70;99.90;;;;;;4971044;28;20286;-90
2024/02/07 08:19:26;;;;;;;10.77;0.97;;;5.70;99.90;;;;;;4998153;28;20230;-90
2024/02/07 08:21:52;;;;;;;0.20;0.20;;;5.80;99.90;;;;;;4978875;28;20753;-91
2024/02/07 08:24:18;;;;;;;0.23;0.23;;;5.80;99.90;;;;;;4982359;28;20379;-91
2024/02/07 08:26:44;;;;;;;0.83;0.83;;;5.80;99.90;;;;;;4981939;28;20349;-90
2024/02/07 08:29:10;;;;;;;6.93;0.90;;;5.90;99.90;;;;;;4977535;28;20307;-90
2024/02/07 08:31:38;;;;;;;0.20;0.20;;;5.90;99.90;;;;;;4981318;28;20230;-90
2024/02/07 08:34:04;;;;;;;0.30;0.30;;;6.00;99.90;;;;;;4997524;28;20219;-91
2024/02/07 08:36:30;;;;;;;0.40;0.40;;;6.40;99.90;;;;;;4976033;28;20271;-90
2024/02/07 08:38:56;;;;;;;0.20;0.20;;;6.60;99.90;;;;;;4977938;28;20231;-89
2024/02/07 08:41:22;;;;;;;0.30;0.30;;;6.50;99.90;;;;;;4979641;28;20234;-89
2024/02/07 08:43:48;;;;;;;0.40;0.40;;;6.40;99.90;;;;;;4981847;28;20215;-91
2024/02/07 08:46:14;;;;;;;0.53;0.53;;;6.30;99.90;;;;;;4997862;28;20246;-91
2024/02/07 08:48:39;;;;;;;11.23;1.07;;;6.20;99.90;;;;;;4981570;28;20183;-91
2024/02/07 08:51:05;;;;;;;0.20;0.20;;;6.00;99.90;;;;;;4984130;28;20191;-91
2024/02/07 08:53:31;;;;;;;2.57;2.47;;;6.00;99.90;;;;;;4997567;28;20250;-91
2024/02/07 08:55:57;;;;;;;0.63;0.60;;;6.00;99.90;;;;;;4997364;28;20551;-91
2024/02/07 08:58:24;;;;;;;0.20;0.20;;;6.00;99.90;;;;;;4981038;28;20290;-90
2024/02/07 09:00:52;;;;;;;1.27;1.27;;;6.10;99.90;;;;;;4994059;28;20187;-90
2024/02/07 09:03:18;;;;;;;0.20;0.20;;;6.10;99.90;;;;;;4995731;28;20262;-90
2024/02/07 09:05:44;;;;;;;4.13;0.77;;;6.10;99.90;;;;;;4980345;28;20250;-90
2024/02/07 09:08:10;;;;;;;0.20;0.20;;;6.10;99.90;;;;;;4987971;28;20309;-90
2024/02/07 09:10:36;;;;;;;0.30;0.30;;;6.20;99.90;;;;;;4976067;28;20714;-90
2024/02/07 09:13:02;;;;;;;1.03;0.63;;;6.30;99.90;;;;;;4978548;28;20546;-90
2024/02/07 09:15:30;;;;;;;0.20;0.20;;;6.60;99.90;;;;;;4981182;28;20175;-89
2024/02/07 09:17:57;;;;;;;0.20;0.20;;;7.00;99.90;;;;;;4981940;28;20550;-89
2024/02/07 09:20:23;;;;;;;2.03;0.40;;;7.10;99.90;;;;;;4982823;28;20234;-89
2024/02/07 09:22:49;;;;;;;0.40;0.40;;;7.20;99.90;;;;;;4979854;28;20227;-88
2024/02/07 09:25:15;;;;;;;0.20;0.20;;;7.20;99.90;;;;;;4976337;28;20596;-89
2024/02/07 09:27:41;;;;;;;0.40;0.40;;;7.10;99.90;;;;;;4979485;28;20207;-89
2024/02/07 09:30:10;;;;;;;0.40;0.40;;;7.20;99.90;;;;;;4988264;28;20195;-88
2024/02/07 09:32:37;;;;;;;0.40;0.40;;;7.20;99.90;;;;;;4980404;28;20219;-89
2024/02/07 09:35:03;;;;;;;3.80;1.23;;;7.30;99.90;;;;;;4997664;28;20266;-87
2024/02/07 09:37:32;;;;;;;0.50;0.50;;;6.80;99.90;;;;;;4968304;28;20218;-90
2024/02/07 09:39:58;;;;;;;2.13;1.03;;;6.70;99.90;;;;;;4980664;28;20230;-89
2024/02/07 09:42:25;;;;;;;0.20;0.20;;;6.40;99.90;;;;;;4980425;28;20187;-89
2024/02/07 09:44:55;;;;;;;0.30;0.30;;;6.30;99.90;;;;;;4994379;28;20219;-88
2024/02/07 09:47:24;;;;;;;4.93;0.93;;;6.40;99.90;;;;;;4993885;28;20227;-89
2024/02/07 09:49:51;;;;;;;1.37;0.60;;;6.60;99.90;;;;;;4994441;28;20231;-89
2024/02/07 09:52:19;;;;;;;0.20;0.20;;;6.70;99.90;;;;;;4980061;28;20695;-89
2024/02/07 09:54:47;;;;;;;0.83;0.83;;;6.80;99.90;;;;;;4987036;28;20191;-89
2024/02/07 09:57:14;;;;;;;0.40;0.40;;;6.80;99.90;;;;;;4979976;28;20334;-89
2024/02/07 09:59:41;;;;;;;0.23;0.23;;;6.90;99.90;;;;;;4995483;28;20644;-89
2024/02/07 10:02:13;;;;;;;0.40;0.30;;;6.90;99.90;;;;;;4978945;28;20681;-90
2024/02/07 10:04:45;;;;;;;0.20;0.20;;;7.10;99.90;;;;;;4973712;28;20254;-89
2024/02/07 10:07:12;;;;;;;3.60;0.80;;;7.20;99.90;;;;;;4995299;28;20207;-89
2024/02/07 10:09:38;;;;;;;0.20;0.20;;;7.10;99.90;;;;;;4994384;28;20596;-90
2024/02/07 10:12:09;;;;;;;0.30;0.30;;;7.10;99.90;;;;;;4987315;28;20548;-89
2024/02/07 10:14:35;;;;;;;0.37;0.37;;;7.10;99.90;;;;;;4998600;28;20703;-88
2024/02/07 10:17:01;;;;;;;1.10;0.50;;;7.10;99.90;;;;;;4995550;28;20227;-89
2024/02/07 10:19:27;;;;;;;1.10;0.50;;;7.10;99.90;;;;;;4979826;28;20250;-89
2024/02/07 10:21:53;;;;;;;1.40;0.77;;;7.10;99.90;;;;;;4976198;28;20306;-90
2024/02/07 10:24:19;;;;;;;0.50;0.50;;;7.10;99.90;;;;;;4976954;28;20179;-88
2024/02/07 10:26:48;;;;;;;0.30;0.30;;;7.10;99.90;;;;;;4986471;28;20258;-89
2024/02/07 10:29:14;;;;;;;0.63;0.63;;;7.10;99.90;;;;;;4978441;28;20203;-90
2024/02/07 10:31:40;;;;;;;0.20;0.20;;;7.10;99.90;;;;;;4995080;28;20675;-88
2024/02/07 10:34:18;;;;;;;0.20;0.20;;;7.10;99.90;;;;;;4994427;28;20215;-89
2024/02/07 10:36:46;;;;;;;2.10;0.33;;;7.00;99.90;;;;;;4986123;28;20202;-90
2024/02/07 10:39:12;;;;;;;0.97;0.80;;;7.10;99.90;;;;;;4977698;28;20679;-89
2024/02/07 10:41:38;;;;;;;0.40;0.40;;;7.10;99.90;;;;;;4976547;28;20222;-89
2024/02/07 10:44:06;;;;;;;0.20;0.20;;;7.20;40.50;;;;;;4993554;28;20207;-88
2024/02/07 10:46:38;;;;;;;2.47;1.17;;;7.30;1.00;;;;;;4978602;28;20222;-88
2024/02/07 10:49:08;;;;;;;1.13;0.40;;;7.40;1.00;;;;;;4978105;28;20207;-88
2024/02/07 10:51:35;;;;;;;0.37;0.37;;;7.30;1.00;;;;;;4986205;28;20179;-89
2024/02/07 10:54:06;;;;;;;0.20;0.20;;;7.10;99.90;;;;;;4995170;28;20234;-90
2024/02/07 10:56:37;;;;;;;0.53;0.53;;;7.10;99.90;;;;;;4976741;28;20225;-88
2024/02/07 10:59:04;;;;;;;3.10;0.93;;;7.10;26.20;;;;;;4994676;28;20230;-89
2024/02/07 11:01:38;;;;;;;2.07;1.37;;;7.30;86.60;;;;;;4998471;28;20215;-88
2024/02/07 11:04:04;;;;;;;0.50;0.50;;;7.40;1.00;;;;;;4983118;28;20262;-88
2024/02/07 11:06:32;;;;;;;0.40;0.40;;;7.40;1.00;;;;;;4982876;28;20172;-88
2024/02/07 11:09:06;;;;;;;0.20;0.20;;;7.40;1.00;;;;;;4981009;28;20306;-89
2024/02/07 11:11:32;;;;;;;0.63;0.63;;;7.30;90.90;;;;;;4992689;28;20782;-90
2024/02/07 11:14:02;;;;;;;4.00;0.50;;;7.40;27.30;;;;;;4980929;28;20710;-88
2024/02/07 11:16:28;;;;;;;2.37;0.63;;;7.30;1.00;;;;;;4995602;28;20289;-89
2024/02/07 11:18:54;;;;;;;0.63;0.63;;;7.50;1.00;;;;;;4979301;28;20223;-92
2024/02/07 11:21:33;;;;;;;3.50;0.87;;;7.50;1.00;;;;;;4997093;28;20248;-88
2024/02/07 11:24:00;;;;;;;1.30;1.30;;;7.50;1.00;;;;;;4996087;28;20226;-89
2024/02/07 11:26:26;;;;;;;0.20;0.20;;;7.70;99.90;;;;;;4995434;28;20273;-89
2024/02/07 11:28:52;;;;;;;0.73;0.40;;;7.80;99.90;;;;;;4995381;28;20223;-88
2024/02/07 11:31:18;;;;;;;1.60;0.43;;;7.60;59.80;;;;;;4978745;28;20250;-88
2024/02/07 11:33:47;;;;;;;0.27;0.27;;;7.70;67.10;;;;;;4979489;28;20832;-87
2024/02/07 11:36:17;;;;;;;0.50;0.50;;;7.90;28.70;;;;;;4982437;28;20535;-89
2024/02/07 11:38:56;;;;;;;1.20;0.70;;;8.20;95.00;;;;;;4995693;28;20250;-88
2024/02/07 11:41:23;;;;;;;0.40;0.40;;;8.60;72.90;;;;;;4978883;28;20207;-91
2024/02/07 11:43:50;;;;;;;1.43;0.63;;;9.10;99.90;;;;;;4997412;28;20219;-90
2024/02/07 11:46:17;;;;;;;5.97;0.63;;;9.30;52.00;;;;;;4980601;28;20222;-90
2024/02/07 11:48:48;;;;;;;1.03;1.03;;;9.10;1.00;;;;;;4994522;28;20210;-87
2024/02/07 11:51:16;;;;;;;1.40;0.97;;;9.40;1.00;;;;;;4991714;28;20222;-90
2024/02/07 11:53:42;;;;;;;7.07;1.07;;;9.70;1.00;;;;;;4979594;28;20250;-89
2024/02/07 11:56:12;;;;;;;0.53;0.53;;;10.10;1.00;;;;;;4994304;28;20219;-88
2024/02/07 11:58:41;;;;;;;4.67;1.53;;;10.80;1.00;;;;;;4997496;28;20235;-89
2024/02/07 12:01:09;;;;;;;0.20;0.20;;;10.70;99.90;;;;;;4986768;28;20223;-88
2024/02/07 12:03:38;;;;;;;0.10;0.10;;;10.10;1.00;;;;;;4989434;28;20184;-91
2024/02/07 12:06:11;;;;;;;0.43;0.43;;;9.40;99.90;;;;;;4992393;28;20216;-90
2024/02/07 12:08:40;;;;;;;0.73;0.73;;;8.70;55.50;;;;;;4994514;28;20368;-88
2024/02/07 12:11:08;;;;;;;0.80;0.80;;;8.50;1.00;;;;;;4977991;28;20227;-89
2024/02/07 12:13:34;;;;;;;0.20;0.20;;;8.60;1.00;;;;;;4980691;28;20715;-90
2024/02/07 12:16:05;;;;;;;2.77;1.10;;;8.50;1.00;;;;;;4979225;28;20230;-88
2024/02/07 12:18:32;;;;;;;0.30;0.30;;;8.50;1.00;;;;;;4996652;28;20179;-88
2024/02/07 12:21:04;;;;;;;0.20;0.20;;;8.60;1.00;;;;;;4988605;28;20330;-89
2024/02/07 12:23:32;;;;;;;0.30;0.30;;;8.50;99.90;;;;;;4995726;28;20290;-88
2024/02/07 12:25:59;;;;;;;1.30;0.70;;;8.50;99.90;;;;;;4978640;28;21219;-88
2024/02/07 12:28:28;;;;;;;0.10;0.10;;;8.30;99.90;;;;;;4994129;28;20207;-89
2024/02/07 12:30:57;;;;;;;0.67;0.63;;;8.40;99.90;;;;;;4994230;28;20659;-88
2024/02/07 12:33:26;;;;;;;0.10;0.10;;;8.40;99.90;;;;;;5012210;28;20179;-89
2024/02/07 12:35:59;;;;;;;0.57;0.57;;;8.70;99.90;;;;;;4993377;28;20218;-88
2024/02/07 12:38:25;;;;;;;0.60;0.60;;;8.80;99.90;;;;;;4992098;28;20696;-88
2024/02/07 12:40:53;;;;;;;3.80;1.03;;;8.70;99.90;;;;;;4979235;28;20215;-88
2024/02/07 12:43:24;;;;;;;0.40;0.40;;;8.90;99.90;;;;;;4995350;28;20218;-88
2024/02/07 12:45:55;;;;;;;2.03;1.07;;;8.80;15.90;;;;;;5006605;28;20250;-87
2024/02/07 12:48:22;;;;;;;0.60;0.60;;;8.90;65.90;;;;;;4993842;28;20179;-87
2024/02/07 12:50:49;;;;;;;0.73;0.60;;;9.30;99.90;;;;;;4992291;28;20257;-87
2024/02/07 12:53:17;;;;;;;3.67;1.60;;;9.20;35.20;;;;;;4992400;28;20558;-85
2024/02/07 12:55:46;;;;;;;3.30;0.43;;;9.30;1.00;;;;;;4992420;28;20609;-87
2024/02/07 12:58:12;;;;;;;1.13;0.43;;;9.50;35.50;;;;;;5010047;28;20310;-86
2024/02/07 13:00:38;;;;;;;0.37;0.37;;;9.60;1.00;;;;;;4975929;28;20306;-90
2024/02/07 13:03:05;;;;;;;0.30;0.30;;;9.50;1.00;;;;;;4978923;28;20230;-86
2024/02/07 13:05:33;;;;;;;0.10;0.10;;;9.30;1.00;;;;;;5008989;28;20242;-88
2024/02/07 13:07:59;;;;;;;0.37;0.37;;;8.90;1.00;;;;;;4980844;28;20207;-87
2024/02/07 13:10:25;;;;;;;7.40;1.23;;;8.70;99.90;;;;;;4977037;28;20880;-91
2024/02/07 13:12:50;;;;;;;2.30;0.30;;;8.80;99.90;;;;;;4991510;28;20214;-88
2024/02/07 13:15:18;;;;;;;0.20;0.20;;;9.00;99.90;;;;;;4979177;28;20184;-90
2024/02/07 13:17:48;;;;;;;1.67;1.57;;;8.90;99.90;;;;;;4992260;28;20203;-88
2024/02/07 13:20:15;;;;;;;1.83;1.30;;;9.00;99.90;;;;;;4984132;28;20314;-88
2024/02/07 13:22:41;;;;;;;0.20;0.20;;;8.90;99.90;;;;;;4993412;28;20211;-89
2024/02/07 13:25:09;;;;;;;0.93;0.77;;;8.90;99.90;;;;;;4991592;28;20223;-87
2024/02/07 13:27:42;;;;;;;0.30;0.30;;;8.60;1.00;;;;;;4994372;28;20179;-87
2024/02/07 13:30:11;;;;;;;20.57;0.90;;;8.60;1.00;;;;;;5001703;28;20170;-88
2024/02/07 13:32:37;;;;;;;0.30;0.30;;;8.30;1.00;;;;;;4991683;28;20203;-87
2024/02/07 13:35:03;;;;;;;0.30;0.30;;;8.20;1.00;;;;;;4993500;28;20266;-87
2024/02/07 13:37:29;;;;;;;0.20;0.20;;;8.20;1.00;;;;;;4992828;28;20207;-88
2024/02/07 13:39:55;;;;;;;0.93;0.67;;;8.20;1.00;;;;;;4976478;28;20239;-87
2024/02/07 13:42:21;;;;;;;1.67;1.57;;;8.10;1.00;;;;;;4976416;28;20180;-87
2024/02/07 13:44:50;;;;;;;0.63;0.63;;;8.20;1.00;;;;;;4978023;28;20211;-88
2024/02/07 13:47:17;;;;;;;0.70;0.70;;;8.10;1.00;;;;;;4992874;28;20345;-89
2024/02/07 13:49:43;;;;;;;7.17;0.63;;;8.20;1.00;;;;;;4992271;28;20219;-89
2024/02/07 13:52:09;;;;;;;0.50;0.50;;;8.30;1.00;;;;;;4988071;28;20694;-87
2024/02/07 13:54:35;;;;;;;4.33;1.73;;;8.30;1.00;;;;;;4977780;28;20183;-87
2024/02/07 13:57:01;;;;;;;2.50;0.87;;;8.20;1.00;;;;;;4979274;28;20262;-90
2024/02/07 13:59:26;;;;;;;0.73;0.50;;;8.10;1.00;;;;;;4977397;28;20250;-90
2024/02/07 14:01:52;;;;;;;0.27;0.27;;;8.00;1.00;;;;;;4977018;28;20215;-87
2024/02/07 14:04:20;;;;;;;0.30;0.30;;;8.00;1.00;;;;;;4976491;28;20258;-88
2024/02/07 14:06:46;;;;;;;0.30;0.30;;;8.00;99.90;;;;;;4977149;28;20195;-87